sensor_id;sensor_type;location;lat;lon;timestamp;P1;durP1;ratioP1;P2;durP2;ratioP2
14486;SDS011;7329;50.866;4.366;2022-12-26T00:00:13;2.50;;;2.20;;
14486;SDS011;7329;50.866;4.366;2022-12-26T00:02:18;2.70;;;2.30;;
14486;SDS011;7329;50.866;4.366;2022-12-26T00:04:21;2.60;;;2.40;;
14486;SDS011;7329;50.866;4.366;2022-12-26T00:06:24;2.40;;;2.20;;
14486;SDS011;7329;50.866;4.366;2022-12-26T00:08:29;2.28;;;2.08;;
14486;SDS011;7329;50.866;4.366;2022-12-26T00:10:31;2.83;;;2.50;;
14486;SDS011;7329;50.866;4.366;2022-12-26T00:12:34;2.53;;;2.33;;
14486;SDS011;7329;50.866;4.366;2022-12-26T00:14:36;2.30;;;2.10;;
14486;SDS011;7329;50.866;4.366;2022-12-26T00:16:40;3.42;;;2.58;;
14486;SDS011;7329;50.866;4.366;2022-12-26T00:18:44;2.83;;;2.35;;
14486;SDS011;7329;50.866;4.366;2022-12-26T00:20:47;2.10;;;1.90;;
14486;SDS011;7329;50.866;4.366;2022-12-26T00:22:50;2.35;;;2.15;;
14486;SDS011;7329;50.866;4.366;2022-12-26T00:24:52;2.92;;;2.50;;
14486;SDS011;7329;50.866;4.366;2022-12-26T00:26:54;2.42;;;2.00;;
14486;SDS011;7329;50.866;4.366;2022-12-26T00:28:57;3.55;;;2.50;;
14486;SDS011;7329;50.866;4.366;2022-12-26T00:31:02;3.25;;;2.72;;
14486;SDS011;7329;50.866;4.366;2022-12-26T00:33:05;2.72;;;2.33;;
14486;SDS011;7329;50.866;4.366;2022-12-26T00:35:08;2.67;;;2.45;;
14486;SDS011;7329;50.866;4.366;2022-12-26T00:37:11;3.28;;;2.45;;
14486;SDS011;7329;50.866;4.366;2022-12-26T00:39:13;2.60;;;2.40;;
14486;SDS011;7329;50.866;4.366;2022-12-26T00:41:19;3.08;;;2.10;;
14486;SDS011;7329;50.866;4.366;2022-12-26T00:43:21;2.58;;;2.38;;
14486;SDS011;7329;50.866;4.366;2022-12-26T00:45:24;3.42;;;2.25;;
14486;SDS011;7329;50.866;4.366;2022-12-26T00:47:26;2.40;;;2.20;;
14486;SDS011;7329;50.866;4.366;2022-12-26T00:49:28;3.60;;;2.28;;
14486;SDS011;7329;50.866;4.366;2022-12-26T00:51:32;2.50;;;2.30;;
14486;SDS011;7329;50.866;4.366;2022-12-26T00:53:35;2.80;;;2.55;;
14486;SDS011;7329;50.866;4.366;2022-12-26T00:55:37;2.35;;;2.03;;
14486;SDS011;7329;50.866;4.366;2022-12-26T00:57:40;2.42;;;2.22;;
14486;SDS011;7329;50.866;4.366;2022-12-26T00:59:43;2.38;;;2.05;;
14486;SDS011;7329;50.866;4.366;2022-12-26T01:01:45;1.95;;;1.85;;
14486;SDS011;7329;50.866;4.366;2022-12-26T01:03:48;2.30;;;2.00;;
14486;SDS011;7329;50.866;4.366;2022-12-26T01:05:51;2.40;;;2.20;;
14486;SDS011;7329;50.866;4.366;2022-12-26T01:07:55;2.33;;;2.13;;
14486;SDS011;7329;50.866;4.366;2022-12-26T01:09:57;2.50;;;2.30;;
14486;SDS011;7329;50.866;4.366;2022-12-26T01:11:59;2.55;;;2.20;;
14486;SDS011;7329;50.866;4.366;2022-12-26T01:14:02;3.40;;;2.50;;
14486;SDS011;7329;50.866;4.366;2022-12-26T01:16:05;2.35;;;2.15;;
14486;SDS011;7329;50.866;4.366;2022-12-26T01:18:08;2.40;;;2.20;;
14486;SDS011;7329;50.866;4.366;2022-12-26T01:20:10;2.95;;;2.30;;
14486;SDS011;7329;50.866;4.366;2022-12-26T01:22:13;2.80;;;2.15;;
14486;SDS011;7329;50.866;4.366;2022-12-26T01:24:16;2.40;;;2.20;;
14486;SDS011;7329;50.866;4.366;2022-12-26T01:26:19;2.45;;;2.10;;
14486;SDS011;7329;50.866;4.366;2022-12-26T01:28:21;2.75;;;2.10;;
14486;SDS011;7329;50.866;4.366;2022-12-26T01:30:23;2.50;;;2.30;;
14486;SDS011;7329;50.866;4.366;2022-12-26T01:32:26;2.72;;;2.30;;
14486;SDS011;7329;50.866;4.366;2022-12-26T01:34:28;2.47;;;2.28;;
14486;SDS011;7329;50.866;4.366;2022-12-26T01:36:31;2.85;;;2.38;;
14486;SDS011;7329;50.866;4.366;2022-12-26T01:38:33;2.25;;;1.90;;
14486;SDS011;7329;50.866;4.366;2022-12-26T01:40:37;2.67;;;2.28;;
14486;SDS011;7329;50.866;4.366;2022-12-26T01:42:43;2.83;;;2.10;;
14486;SDS011;7329;50.866;4.366;2022-12-26T01:44:59;2.35;;;1.95;;
14486;SDS011;7329;50.866;4.366;2022-12-26T01:47:04;2.08;;;1.88;;
14486;SDS011;7329;50.866;4.366;2022-12-26T01:49:08;2.33;;;2.10;;
14486;SDS011;7329;50.866;4.366;2022-12-26T01:51:15;2.30;;;2.08;;
14486;SDS011;7329;50.866;4.366;2022-12-26T01:53:21;2.35;;;2.15;;
14486;SDS011;7329;50.866;4.366;2022-12-26T01:55:27;2.15;;;1.75;;
14486;SDS011;7329;50.866;4.366;2022-12-26T01:57:32;2.72;;;2.30;;
14486;SDS011;7329;50.866;4.366;2022-12-26T01:59:38;2.53;;;2.20;;
14486;SDS011;7329;50.866;4.366;2022-12-26T02:01:42;2.40;;;2.20;;
14486;SDS011;7329;50.866;4.366;2022-12-26T02:03:48;2.60;;;2.40;;
14486;SDS011;7329;50.866;4.366;2022-12-26T02:06:08;2.35;;;1.98;;
14486;SDS011;7329;50.866;4.366;2022-12-26T02:08:12;2.72;;;2.17;;
14486;SDS011;7329;50.866;4.366;2022-12-26T02:10:17;2.50;;;2.10;;
14486;SDS011;7329;50.866;4.366;2022-12-26T02:12:24;2.42;;;2.17;;
14486;SDS011;7329;50.866;4.366;2022-12-26T02:14:32;2.20;;;1.83;;
14486;SDS011;7329;50.866;4.366;2022-12-26T02:16:36;2.40;;;2.17;;
14486;SDS011;7329;50.866;4.366;2022-12-26T02:18:39;2.40;;;2.15;;
14486;SDS011;7329;50.866;4.366;2022-12-26T02:20:43;2.67;;;2.45;;
14486;SDS011;7329;50.866;4.366;2022-12-26T02:23:15;3.53;;;2.28;;
14486;SDS011;7329;50.866;4.366;2022-12-26T02:26:06;2.42;;;2.22;;
14486;SDS011;7329;50.866;4.366;2022-12-26T02:31:00;1.80;;;1.65;;
14486;SDS011;7329;50.866;4.366;2022-12-26T02:33:14;2.58;;;2.22;;
14486;SDS011;7329;50.866;4.366;2022-12-26T02:35:45;2.15;;;1.90;;
14486;SDS011;7329;50.866;4.366;2022-12-26T02:37:58;2.30;;;1.85;;
14486;SDS011;7329;50.866;4.366;2022-12-26T02:40:16;2.40;;;2.17;;
14486;SDS011;7329;50.866;4.366;2022-12-26T02:42:29;2.63;;;2.17;;
14486;SDS011;7329;50.866;4.366;2022-12-26T02:44:40;2.50;;;2.30;;
14486;SDS011;7329;50.866;4.366;2022-12-26T02:47:09;2.30;;;1.92;;
14486;SDS011;7329;50.866;4.366;2022-12-26T02:49:16;2.80;;;2.03;;
14486;SDS011;7329;50.866;4.366;2022-12-26T02:51:25;2.03;;;1.83;;
14486;SDS011;7329;50.866;4.366;2022-12-26T02:53:58;2.30;;;2.10;;
14486;SDS011;7329;50.866;4.366;2022-12-26T02:56:26;2.83;;;2.17;;
14486;SDS011;7329;50.866;4.366;2022-12-26T02:58:53;2.10;;;1.90;;
14486;SDS011;7329;50.866;4.366;2022-12-26T03:01:22;2.05;;;1.85;;
14486;SDS011;7329;50.866;4.366;2022-12-26T03:03:47;3.13;;;2.20;;
14486;SDS011;7329;50.866;4.366;2022-12-26T03:06:10;2.33;;;2.13;;
14486;SDS011;7329;50.866;4.366;2022-12-26T03:08:34;2.28;;;2.08;;
14486;SDS011;7329;50.866;4.366;2022-12-26T03:10:56;3.15;;;2.22;;
14486;SDS011;7329;50.866;4.366;2022-12-26T03:13:17;2.42;;;2.13;;
14486;SDS011;7329;50.866;4.366;2022-12-26T03:15:23;2.33;;;2.03;;
14486;SDS011;7329;50.866;4.366;2022-12-26T03:17:29;2.95;;;1.83;;
14486;SDS011;7329;50.866;4.366;2022-12-26T03:19:35;2.25;;;2.05;;
14486;SDS011;7329;50.866;4.366;2022-12-26T03:21:57;2.20;;;2.00;;
14486;SDS011;7329;50.866;4.366;2022-12-26T03:24:22;2.20;;;2.00;;
14486;SDS011;7329;50.866;4.366;2022-12-26T03:26:47;2.72;;;2.10;;
14486;SDS011;7329;50.866;4.366;2022-12-26T03:28:52;2.25;;;1.80;;
14486;SDS011;7329;50.866;4.366;2022-12-26T03:31:15;2.38;;;2.17;;
14486;SDS011;7329;50.866;4.366;2022-12-26T03:33:18;2.17;;;1.83;;
14486;SDS011;7329;50.866;4.366;2022-12-26T03:35:43;2.08;;;1.88;;
14486;SDS011;7329;50.866;4.366;2022-12-26T03:37:48;2.20;;;1.92;;
14486;SDS011;7329;50.866;4.366;2022-12-26T03:39:56;2.45;;;2.05;;
14486;SDS011;7329;50.866;4.366;2022-12-26T03:42:25;2.30;;;2.03;;
14486;SDS011;7329;50.866;4.366;2022-12-26T03:44:54;2.33;;;2.13;;
14486;SDS011;7329;50.866;4.366;2022-12-26T03:47:18;2.65;;;1.90;;
14486;SDS011;7329;50.866;4.366;2022-12-26T03:49:44;2.40;;;1.85;;
14486;SDS011;7329;50.866;4.366;2022-12-26T03:52:10;2.10;;;1.90;;
14486;SDS011;7329;50.866;4.366;2022-12-26T03:54:36;2.30;;;2.03;;
14486;SDS011;7329;50.866;4.366;2022-12-26T03:57:04;1.83;;;1.67;;
14486;SDS011;7329;50.866;4.366;2022-12-26T03:59:32;2.10;;;1.90;;
14486;SDS011;7329;50.866;4.366;2022-12-26T04:01:57;2.72;;;2.08;;
14486;SDS011;7329;50.866;4.366;2022-12-26T04:04:22;2.03;;;1.80;;
14486;SDS011;7329;50.866;4.366;2022-12-26T04:06:56;2.15;;;1.95;;
14486;SDS011;7329;50.866;4.366;2022-12-26T04:09:23;3.17;;;2.05;;
14486;SDS011;7329;50.866;4.366;2022-12-26T04:11:46;2.53;;;2.10;;
14486;SDS011;7329;50.866;4.366;2022-12-26T04:14:07;1.80;;;1.70;;
14486;SDS011;7329;50.866;4.366;2022-12-26T04:16:35;2.47;;;1.90;;
14486;SDS011;7329;50.866;4.366;2022-12-26T04:18:58;2.17;;;1.98;;
14486;SDS011;7329;50.866;4.366;2022-12-26T04:21:25;2.50;;;2.30;;
14486;SDS011;7329;50.866;4.366;2022-12-26T04:23:52;2.38;;;1.88;;
14486;SDS011;7329;50.866;4.366;2022-12-26T04:26:17;2.22;;;1.92;;
14486;SDS011;7329;50.866;4.366;2022-12-26T04:28:41;2.20;;;1.83;;
14486;SDS011;7329;50.866;4.366;2022-12-26T04:31:02;2.20;;;1.80;;
14486;SDS011;7329;50.866;4.366;2022-12-26T04:33:26;2.72;;;1.98;;
14486;SDS011;7329;50.866;4.366;2022-12-26T04:35:54;2.40;;;2.20;;
14486;SDS011;7329;50.866;4.366;2022-12-26T04:38:18;2.70;;;1.85;;
14486;SDS011;7329;50.866;4.366;2022-12-26T04:40:43;1.77;;;1.67;;
14486;SDS011;7329;50.866;4.366;2022-12-26T04:43:07;2.03;;;1.67;;
14486;SDS011;7329;50.866;4.366;2022-12-26T04:45:28;2.10;;;1.90;;
14486;SDS011;7329;50.866;4.366;2022-12-26T04:47:31;2.00;;;1.80;;
14486;SDS011;7329;50.866;4.366;2022-12-26T04:49:40;1.70;;;1.60;;
14486;SDS011;7329;50.866;4.366;2022-12-26T04:52:01;1.95;;;1.75;;
14486;SDS011;7329;50.866;4.366;2022-12-26T04:54:05;1.80;;;1.67;;
14486;SDS011;7329;50.866;4.366;2022-12-26T04:56:08;2.22;;;1.95;;
14486;SDS011;7329;50.866;4.366;2022-12-26T04:58:13;1.70;;;1.60;;
14486;SDS011;7329;50.866;4.366;2022-12-26T05:00:17;2.20;;;1.70;;
14486;SDS011;7329;50.866;4.366;2022-12-26T05:02:19;2.03;;;1.63;;
14486;SDS011;7329;50.866;4.366;2022-12-26T05:04:39;1.70;;;1.60;;
14486;SDS011;7329;50.866;4.366;2022-12-26T05:06:59;2.15;;;1.95;;
14486;SDS011;7329;50.866;4.366;2022-12-26T05:09:21;2.20;;;2.00;;
14486;SDS011;7329;50.866;4.366;2022-12-26T05:11:35;2.15;;;1.95;;
14486;SDS011;7329;50.866;4.366;2022-12-26T05:13:39;2.05;;;1.63;;
14486;SDS011;7329;50.866;4.366;2022-12-26T05:15:41;2.20;;;1.85;;
14486;SDS011;7329;50.866;4.366;2022-12-26T05:17:57;1.88;;;1.75;;
14486;SDS011;7329;50.866;4.366;2022-12-26T05:20:17;2.10;;;1.90;;
14486;SDS011;7329;50.866;4.366;2022-12-26T05:22:45;1.95;;;1.80;;
14486;SDS011;7329;50.866;4.366;2022-12-26T05:25:08;2.30;;;1.90;;
14486;SDS011;7329;50.866;4.366;2022-12-26T05:27:34;1.90;;;1.80;;
14486;SDS011;7329;50.866;4.366;2022-12-26T05:29:57;2.25;;;1.70;;
14486;SDS011;7329;50.866;4.366;2022-12-26T05:31:59;1.65;;;1.55;;
14486;SDS011;7329;50.866;4.366;2022-12-26T05:34:02;1.73;;;1.60;;
14486;SDS011;7329;50.866;4.366;2022-12-26T05:36:06;1.70;;;1.60;;
14486;SDS011;7329;50.866;4.366;2022-12-26T05:38:09;1.88;;;1.60;;
14486;SDS011;7329;50.866;4.366;2022-12-26T05:40:11;1.85;;;1.75;;
14486;SDS011;7329;50.866;4.366;2022-12-26T05:42:14;1.80;;;1.70;;
14486;SDS011;7329;50.866;4.366;2022-12-26T05:44:16;1.70;;;1.60;;
14486;SDS011;7329;50.866;4.366;2022-12-26T05:46:20;1.90;;;1.58;;
14486;SDS011;7329;50.866;4.366;2022-12-26T05:48:22;1.95;;;1.75;;
14486;SDS011;7329;50.866;4.366;2022-12-26T05:50:25;2.03;;;1.83;;
14486;SDS011;7329;50.866;4.366;2022-12-26T05:52:27;1.50;;;1.40;;
14486;SDS011;7329;50.866;4.366;2022-12-26T05:54:29;1.88;;;1.52;;
14486;SDS011;7329;50.866;4.366;2022-12-26T05:56:32;2.63;;;2.00;;
14486;SDS011;7329;50.866;4.366;2022-12-26T05:58:34;1.70;;;1.60;;
14486;SDS011;7329;50.866;4.366;2022-12-26T06:00:36;1.42;;;1.33;;
14486;SDS011;7329;50.866;4.366;2022-12-26T06:02:40;2.17;;;1.60;;
14486;SDS011;7329;50.866;4.366;2022-12-26T06:04:43;2.10;;;1.83;;
14486;SDS011;7329;50.866;4.366;2022-12-26T06:06:45;1.75;;;1.52;;
14486;SDS011;7329;50.866;4.366;2022-12-26T06:08:48;1.70;;;1.50;;
14486;SDS011;7329;50.866;4.366;2022-12-26T06:10:51;2.10;;;1.90;;
14486;SDS011;7329;50.866;4.366;2022-12-26T06:12:53;2.00;;;1.80;;
14486;SDS011;7329;50.866;4.366;2022-12-26T06:14:56;1.50;;;1.40;;
14486;SDS011;7329;50.866;4.366;2022-12-26T06:16:58;1.65;;;1.50;;
14486;SDS011;7329;50.866;4.366;2022-12-26T06:19:02;1.95;;;1.52;;
14486;SDS011;7329;50.866;4.366;2022-12-26T06:21:05;1.98;;;1.77;;
14486;SDS011;7329;50.866;4.366;2022-12-26T06:23:08;1.88;;;1.40;;
14486;SDS011;7329;50.866;4.366;2022-12-26T06:25:11;2.00;;;1.85;;
14486;SDS011;7329;50.866;4.366;2022-12-26T06:27:13;1.73;;;1.60;;
14486;SDS011;7329;50.866;4.366;2022-12-26T06:29:16;2.45;;;1.52;;
14486;SDS011;7329;50.866;4.366;2022-12-26T06:31:19;1.40;;;1.30;;
14486;SDS011;7329;50.866;4.366;2022-12-26T06:33:23;1.60;;;1.50;;
14486;SDS011;7329;50.866;4.366;2022-12-26T06:35:26;1.90;;;1.55;;
14486;SDS011;7329;50.866;4.366;2022-12-26T06:37:29;1.73;;;1.63;;
14486;SDS011;7329;50.866;4.366;2022-12-26T06:39:33;1.95;;;1.40;;
14486;SDS011;7329;50.866;4.366;2022-12-26T06:41:35;1.63;;;1.40;;
14486;SDS011;7329;50.866;4.366;2022-12-26T06:43:38;1.63;;;1.50;;
14486;SDS011;7329;50.866;4.366;2022-12-26T06:45:40;1.98;;;1.70;;
14486;SDS011;7329;50.866;4.366;2022-12-26T06:47:42;1.60;;;1.50;;
14486;SDS011;7329;50.866;4.366;2022-12-26T06:49:45;2.10;;;1.80;;
14486;SDS011;7329;50.866;4.366;2022-12-26T06:51:49;1.67;;;1.33;;
14486;SDS011;7329;50.866;4.366;2022-12-26T06:53:51;1.85;;;1.75;;
14486;SDS011;7329;50.866;4.366;2022-12-26T06:55:54;1.50;;;1.40;;
14486;SDS011;7329;50.866;4.366;2022-12-26T06:58:06;1.92;;;1.73;;
14486;SDS011;7329;50.866;4.366;2022-12-26T07:00:10;1.67;;;1.58;;
14486;SDS011;7329;50.866;4.366;2022-12-26T07:02:14;1.80;;;1.60;;
14486;SDS011;7329;50.866;4.366;2022-12-26T07:04:16;1.77;;;1.42;;
14486;SDS011;7329;50.866;4.366;2022-12-26T07:06:20;1.50;;;1.40;;
14486;SDS011;7329;50.866;4.366;2022-12-26T07:08:25;1.63;;;1.23;;
14486;SDS011;7329;50.866;4.366;2022-12-26T07:10:28;1.40;;;1.30;;
14486;SDS011;7329;50.866;4.366;2022-12-26T07:12:30;1.60;;;1.30;;
14486;SDS011;7329;50.866;4.366;2022-12-26T07:14:35;2.08;;;1.35;;
14486;SDS011;7329;50.866;4.366;2022-12-26T07:16:38;1.70;;;1.17;;
14486;SDS011;7329;50.866;4.366;2022-12-26T07:18:41;1.27;;;1.13;;
14486;SDS011;7329;50.866;4.366;2022-12-26T07:20:43;1.77;;;1.30;;
14486;SDS011;7329;50.866;4.366;2022-12-26T07:22:46;1.40;;;1.30;;
14486;SDS011;7329;50.866;4.366;2022-12-26T07:24:50;1.20;;;1.10;;
14486;SDS011;7329;50.866;4.366;2022-12-26T07:26:52;1.40;;;1.10;;
14486;SDS011;7329;50.866;4.366;2022-12-26T07:28:55;1.42;;;1.33;;
14486;SDS011;7329;50.866;4.366;2022-12-26T07:30:58;1.55;;;1.33;;
14486;SDS011;7329;50.866;4.366;2022-12-26T07:33:01;1.30;;;1.20;;
14486;SDS011;7329;50.866;4.366;2022-12-26T07:35:03;1.30;;;1.20;;
14486;SDS011;7329;50.866;4.366;2022-12-26T07:37:06;1.13;;;1.02;;
14486;SDS011;7329;50.866;4.366;2022-12-26T07:39:11;1.70;;;1.27;;
14486;SDS011;7329;50.866;4.366;2022-12-26T07:41:15;1.40;;;1.10;;
14486;SDS011;7329;50.866;4.366;2022-12-26T07:43:35;1.50;;;1.40;;
14486;SDS011;7329;50.866;4.366;2022-12-26T07:45:37;1.52;;;1.30;;
14486;SDS011;7329;50.866;4.366;2022-12-26T07:47:39;1.17;;;0.95;;
14486;SDS011;7329;50.866;4.366;2022-12-26T07:49:42;1.52;;;1.08;;
14486;SDS011;7329;50.866;4.366;2022-12-26T07:51:44;1.20;;;1.10;;
14486;SDS011;7329;50.866;4.366;2022-12-26T07:53:47;1.88;;;1.20;;
14486;SDS011;7329;50.866;4.366;2022-12-26T07:55:49;1.25;;;1.10;;
14486;SDS011;7329;50.866;4.366;2022-12-26T07:57:53;1.30;;;1.20;;
14486;SDS011;7329;50.866;4.366;2022-12-26T07:59:55;1.15;;;1.05;;
14486;SDS011;7329;50.866;4.366;2022-12-26T08:01:57;1.52;;;1.27;;
14486;SDS011;7329;50.866;4.366;2022-12-26T08:04:04;1.45;;;1.35;;
14486;SDS011;7329;50.866;4.366;2022-12-26T08:06:08;1.23;;;1.08;;
14486;SDS011;7329;50.866;4.366;2022-12-26T08:08:10;1.30;;;1.20;;
14486;SDS011;7329;50.866;4.366;2022-12-26T08:10:13;1.52;;;1.10;;
14486;SDS011;7329;50.866;4.366;2022-12-26T08:12:16;1.20;;;1.10;;
14486;SDS011;7329;50.866;4.366;2022-12-26T08:14:22;1.20;;;1.10;;
14486;SDS011;7329;50.866;4.366;2022-12-26T08:16:24;1.10;;;1.00;;
14486;SDS011;7329;50.866;4.366;2022-12-26T08:18:27;1.20;;;1.10;;
14486;SDS011;7329;50.866;4.366;2022-12-26T08:20:29;1.30;;;1.20;;
14486;SDS011;7329;50.866;4.366;2022-12-26T08:22:31;1.52;;;1.20;;
14486;SDS011;7329;50.866;4.366;2022-12-26T08:24:34;0.93;;;0.80;;
14486;SDS011;7329;50.866;4.366;2022-12-26T08:26:36;1.35;;;1.10;;
14486;SDS011;7329;50.866;4.366;2022-12-26T08:28:38;1.42;;;1.00;;
14486;SDS011;7329;50.866;4.366;2022-12-26T08:30:42;1.20;;;1.10;;
14486;SDS011;7329;50.866;4.366;2022-12-26T08:32:45;1.27;;;1.00;;
14486;SDS011;7329;50.866;4.366;2022-12-26T08:34:47;1.50;;;1.35;;
14486;SDS011;7329;50.866;4.366;2022-12-26T08:36:49;1.70;;;1.25;;
14486;SDS011;7329;50.866;4.366;2022-12-26T08:38:52;1.00;;;0.90;;
14486;SDS011;7329;50.866;4.366;2022-12-26T08:40:54;1.35;;;1.13;;
14486;SDS011;7329;50.866;4.366;2022-12-26T08:42:57;1.40;;;1.13;;
14486;SDS011;7329;50.866;4.366;2022-12-26T08:44:59;1.25;;;0.95;;
14486;SDS011;7329;50.866;4.366;2022-12-26T08:47:03;1.27;;;1.05;;
14486;SDS011;7329;50.866;4.366;2022-12-26T08:49:05;1.67;;;1.23;;
14486;SDS011;7329;50.866;4.366;2022-12-26T08:51:08;1.10;;;0.98;;
14486;SDS011;7329;50.866;4.366;2022-12-26T08:53:14;1.60;;;1.20;;
14486;SDS011;7329;50.866;4.366;2022-12-26T08:55:16;1.33;;;1.10;;
14486;SDS011;7329;50.866;4.366;2022-12-26T08:57:19;1.23;;;0.90;;
14486;SDS011;7329;50.866;4.366;2022-12-26T08:59:21;1.67;;;0.85;;
14486;SDS011;7329;50.866;4.366;2022-12-26T09:01:24;1.13;;;1.00;;
14486;SDS011;7329;50.866;4.366;2022-12-26T09:03:29;1.42;;;1.10;;
14486;SDS011;7329;50.866;4.366;2022-12-26T09:05:31;1.00;;;1.00;;
14486;SDS011;7329;50.866;4.366;2022-12-26T09:07:34;1.77;;;1.13;;
14486;SDS011;7329;50.866;4.366;2022-12-26T09:09:36;1.23;;;0.98;;
14486;SDS011;7329;50.866;4.366;2022-12-26T09:11:39;0.95;;;0.93;;
14486;SDS011;7329;50.866;4.366;2022-12-26T09:13:42;1.13;;;1.02;;
14486;SDS011;7329;50.866;4.366;2022-12-26T09:15:47;1.40;;;1.13;;
14486;SDS011;7329;50.866;4.366;2022-12-26T09:17:49;1.92;;;1.30;;
14486;SDS011;7329;50.866;4.366;2022-12-26T09:19:53;1.23;;;1.00;;
14486;SDS011;7329;50.866;4.366;2022-12-26T09:21:55;2.40;;;1.20;;
14486;SDS011;7329;50.866;4.366;2022-12-26T09:24:12;1.13;;;0.90;;
14486;SDS011;7329;50.866;4.366;2022-12-26T09:26:17;2.00;;;1.10;;
14486;SDS011;7329;50.866;4.366;2022-12-26T09:28:20;1.13;;;1.02;;
14486;SDS011;7329;50.866;4.366;2022-12-26T09:30:23;2.03;;;1.20;;
14486;SDS011;7329;50.866;4.366;2022-12-26T09:32:25;1.30;;;1.00;;
14486;SDS011;7329;50.866;4.366;2022-12-26T09:34:28;0.73;;;0.73;;
14486;SDS011;7329;50.866;4.366;2022-12-26T09:36:32;1.40;;;0.93;;
14486;SDS011;7329;50.866;4.366;2022-12-26T09:38:37;0.95;;;0.90;;
14486;SDS011;7329;50.866;4.366;2022-12-26T09:40:48;0.90;;;0.80;;
14486;SDS011;7329;50.866;4.366;2022-12-26T09:43:03;1.13;;;0.90;;
14486;SDS011;7329;50.866;4.366;2022-12-26T09:45:16;1.00;;;0.90;;
14486;SDS011;7329;50.866;4.366;2022-12-26T09:47:25;1.15;;;0.98;;
14486;SDS011;7329;50.866;4.366;2022-12-26T09:49:33;1.10;;;0.90;;
14486;SDS011;7329;50.866;4.366;2022-12-26T09:51:40;1.08;;;0.80;;
14486;SDS011;7329;50.866;4.366;2022-12-26T09:53:45;1.70;;;1.05;;
14486;SDS011;7329;50.866;4.366;2022-12-26T09:55:49;1.20;;;1.05;;
14486;SDS011;7329;50.866;4.366;2022-12-26T09:57:56;1.13;;;1.00;;
14486;SDS011;7329;50.866;4.366;2022-12-26T10:00:05;0.95;;;0.90;;
14486;SDS011;7329;50.866;4.366;2022-12-26T10:02:09;1.00;;;0.85;;
14486;SDS011;7329;50.866;4.366;2022-12-26T10:04:20;1.65;;;0.95;;
14486;SDS011;7329;50.866;4.366;2022-12-26T10:06:24;1.50;;;0.90;;
14486;SDS011;7329;50.866;4.366;2022-12-26T10:08:34;1.05;;;0.85;;
14486;SDS011;7329;50.866;4.366;2022-12-26T10:10:48;1.48;;;1.10;;
14486;SDS011;7329;50.866;4.366;2022-12-26T10:12:57;1.63;;;1.02;;
14486;SDS011;7329;50.866;4.366;2022-12-26T10:15:22;1.23;;;0.98;;
14486;SDS011;7329;50.866;4.366;2022-12-26T10:17:31;1.85;;;1.10;;
14486;SDS011;7329;50.866;4.366;2022-12-26T10:19:41;2.28;;;1.13;;
14486;SDS011;7329;50.866;4.366;2022-12-26T10:21:52;1.20;;;0.90;;
14486;SDS011;7329;50.866;4.366;2022-12-26T10:24:02;1.23;;;0.98;;
14486;SDS011;7329;50.866;4.366;2022-12-26T10:26:10;0.98;;;0.80;;
14486;SDS011;7329;50.866;4.366;2022-12-26T10:28:17;1.65;;;0.80;;
14486;SDS011;7329;50.866;4.366;2022-12-26T10:30:30;1.10;;;0.90;;
14486;SDS011;7329;50.866;4.366;2022-12-26T10:32:38;1.80;;;1.00;;
14486;SDS011;7329;50.866;4.366;2022-12-26T10:34:45;1.08;;;1.02;;
14486;SDS011;7329;50.866;4.366;2022-12-26T10:36:50;1.10;;;0.90;;
14486;SDS011;7329;50.866;4.366;2022-12-26T10:38:55;1.00;;;0.80;;
14486;SDS011;7329;50.866;4.366;2022-12-26T10:41:03;0.90;;;0.90;;
14486;SDS011;7329;50.866;4.366;2022-12-26T10:43:15;1.35;;;1.10;;
14486;SDS011;7329;50.866;4.366;2022-12-26T10:45:25;0.60;;;0.60;;
14486;SDS011;7329;50.866;4.366;2022-12-26T10:47:36;1.20;;;0.93;;
14486;SDS011;7329;50.866;4.366;2022-12-26T10:49:40;1.00;;;0.70;;
14486;SDS011;7329;50.866;4.366;2022-12-26T10:51:45;1.15;;;0.90;;
14486;SDS011;7329;50.866;4.366;2022-12-26T10:53:48;1.38;;;1.10;;
14486;SDS011;7329;50.866;4.366;2022-12-26T10:55:52;1.00;;;0.70;;
14486;SDS011;7329;50.866;4.366;2022-12-26T10:58:01;1.08;;;0.95;;
14486;SDS011;7329;50.866;4.366;2022-12-26T11:00:12;1.67;;;0.75;;
14486;SDS011;7329;50.866;4.366;2022-12-26T11:02:21;0.90;;;0.80;;
14486;SDS011;7329;50.866;4.366;2022-12-26T11:04:25;0.90;;;0.75;;
14486;SDS011;7329;50.866;4.366;2022-12-26T11:06:30;1.92;;;0.80;;
14486;SDS011;7329;50.866;4.366;2022-12-26T11:08:35;1.38;;;0.90;;
14486;SDS011;7329;50.866;4.366;2022-12-26T11:10:39;1.58;;;0.85;;
14486;SDS011;7329;50.866;4.366;2022-12-26T11:12:46;1.33;;;1.00;;
14486;SDS011;7329;50.866;4.366;2022-12-26T11:14:55;1.00;;;0.80;;
14486;SDS011;7329;50.866;4.366;2022-12-26T11:17:00;0.85;;;0.77;;
14486;SDS011;7329;50.866;4.366;2022-12-26T11:19:05;1.02;;;0.80;;
14486;SDS011;7329;50.866;4.366;2022-12-26T11:21:11;1.55;;;0.93;;
14486;SDS011;7329;50.866;4.366;2022-12-26T11:23:24;1.23;;;0.80;;
14486;SDS011;7329;50.866;4.366;2022-12-26T11:25:28;1.20;;;0.80;;
14486;SDS011;7329;50.866;4.366;2022-12-26T11:27:34;1.02;;;0.80;;
14486;SDS011;7329;50.866;4.366;2022-12-26T11:29:37;0.88;;;0.68;;
14486;SDS011;7329;50.866;4.366;2022-12-26T11:31:49;1.35;;;1.08;;
14486;SDS011;7329;50.866;4.366;2022-12-26T11:33:53;1.80;;;1.00;;
14486;SDS011;7329;50.866;4.366;2022-12-26T11:36:06;1.08;;;0.77;;
14486;SDS011;7329;50.866;4.366;2022-12-26T11:38:13;1.33;;;0.73;;
14486;SDS011;7329;50.866;4.366;2022-12-26T11:40:35;0.88;;;0.70;;
14486;SDS011;7329;50.866;4.366;2022-12-26T11:42:39;1.27;;;0.90;;
14486;SDS011;7329;50.866;4.366;2022-12-26T11:44:42;1.30;;;0.80;;
14486;SDS011;7329;50.866;4.366;2022-12-26T11:46:48;1.80;;;0.90;;
14486;SDS011;7329;50.866;4.366;2022-12-26T11:48:53;1.20;;;0.60;;
14486;SDS011;7329;50.866;4.366;2022-12-26T11:50:56;1.48;;;0.90;;
14486;SDS011;7329;50.866;4.366;2022-12-26T11:53:03;1.10;;;0.80;;
14486;SDS011;7329;50.866;4.366;2022-12-26T11:55:29;1.58;;;1.05;;
14486;SDS011;7329;50.866;4.366;2022-12-26T11:57:33;0.95;;;0.85;;
14486;SDS011;7329;50.866;4.366;2022-12-26T11:59:35;1.10;;;0.80;;
14486;SDS011;7329;50.866;4.366;2022-12-26T12:01:38;1.92;;;0.90;;
14486;SDS011;7329;50.866;4.366;2022-12-26T12:03:42;1.20;;;0.77;;
14486;SDS011;7329;50.866;4.366;2022-12-26T12:05:49;1.08;;;0.68;;
14486;SDS011;7329;50.866;4.366;2022-12-26T12:08:01;1.00;;;0.80;;
14486;SDS011;7329;50.866;4.366;2022-12-26T12:13:14;1.67;;;0.80;;
14486;SDS011;7329;50.866;4.366;2022-12-26T12:15:27;0.70;;;0.70;;
14486;SDS011;7329;50.866;4.366;2022-12-26T12:17:33;1.30;;;0.80;;
14486;SDS011;7329;50.866;4.366;2022-12-26T12:19:44;1.23;;;0.80;;
14486;SDS011;7329;50.866;4.366;2022-12-26T12:22:00;1.63;;;0.95;;
14486;SDS011;7329;50.866;4.366;2022-12-26T12:24:36;1.08;;;0.85;;
14486;SDS011;7329;50.866;4.366;2022-12-26T12:26:49;1.23;;;0.77;;
14486;SDS011;7329;50.866;4.366;2022-12-26T12:29:13;1.83;;;0.80;;
14486;SDS011;7329;50.866;4.366;2022-12-26T12:31:28;1.75;;;0.73;;
14486;SDS011;7329;50.866;4.366;2022-12-26T12:33:40;1.40;;;0.80;;
14486;SDS011;7329;50.866;4.366;2022-12-26T12:35:55;1.05;;;0.88;;
14486;SDS011;7329;50.866;4.366;2022-12-26T12:38:17;1.67;;;1.00;;
14486;SDS011;7329;50.866;4.366;2022-12-26T12:40:32;1.83;;;0.82;;
14486;SDS011;7329;50.866;4.366;2022-12-26T12:42:44;1.88;;;0.82;;
14486;SDS011;7329;50.866;4.366;2022-12-26T12:44:57;1.50;;;0.80;;
14486;SDS011;7329;50.866;4.366;2022-12-26T12:47:06;1.23;;;0.80;;
14486;SDS011;7329;50.866;4.366;2022-12-26T12:49:33;1.30;;;0.90;;
14486;SDS011;7329;50.866;4.366;2022-12-26T12:51:46;1.60;;;0.93;;
14486;SDS011;7329;50.866;4.366;2022-12-26T12:53:58;1.52;;;0.77;;
14486;SDS011;7329;50.866;4.366;2022-12-26T12:56:25;1.75;;;0.95;;
14486;SDS011;7329;50.866;4.366;2022-12-26T12:58:40;2.47;;;1.23;;
14486;SDS011;7329;50.866;4.366;2022-12-26T13:00:47;2.40;;;1.17;;
14486;SDS011;7329;50.866;4.366;2022-12-26T13:02:54;1.60;;;0.93;;
14486;SDS011;7329;50.866;4.366;2022-12-26T13:05:02;1.42;;;0.80;;
14486;SDS011;7329;50.866;4.366;2022-12-26T13:07:17;1.40;;;0.90;;
14486;SDS011;7329;50.866;4.366;2022-12-26T13:09:24;2.42;;;1.00;;
14486;SDS011;7329;50.866;4.366;2022-12-26T13:11:32;1.88;;;0.80;;